createdAt,value
2019-04-23T00:04:10.386Z,-82
2019-04-23T00:07:08.154Z,-82
2019-04-23T00:11:53.828Z,-81
2019-04-23T00:14:40.928Z,-82
2019-04-23T00:17:04.457Z,-83
2019-04-23T00:19:43.309Z,-83
2019-04-23T00:22:26.525Z,-82
2019-04-23T00:30:00.966Z,-84
2019-04-23T00:35:25.779Z,-81
2019-04-23T00:37:39.321Z,-82
2019-04-23T00:40:23.744Z,-82
2019-04-23T00:43:11.317Z,-84
2019-04-23T00:45:32.678Z,-84
2019-04-23T00:47:54.916Z,-81
2019-04-23T00:50:48.074Z,-81
2019-04-23T00:53:05.894Z,-81
2019-04-23T00:55:44.742Z,-81
2019-04-23T00:58:22.407Z,-81
2019-04-23T01:03:21.408Z,-82
2019-04-23T01:05:55.667Z,-81
2019-04-23T01:08:30.206Z,-82
2019-04-23T01:13:43.226Z,-81
2019-04-23T01:16:16.020Z,-82
2019-04-23T01:18:54.425Z,-82
2019-04-23T01:21:15.713Z,-83
2019-04-23T01:24:06.613Z,-84
2019-04-23T01:27:32.305Z,-82
2019-04-23T01:29:57.926Z,-81
2019-04-23T01:32:27.075Z,-82
2019-04-23T01:35:06.644Z,-82
2019-04-23T01:37:40.007Z,-82
2019-04-23T01:40:15.265Z,-83
2019-04-23T01:45:21.092Z,-82
2019-04-23T01:47:49.617Z,-82
2019-04-23T01:53:00.805Z,-83
2019-04-23T01:58:21.902Z,-81
2019-04-23T02:00:40.778Z,-84
2019-04-23T02:03:15.213Z,-81
2019-04-23T02:05:48.136Z,-81
2019-04-23T02:08:19.319Z,-81
2019-04-23T02:13:32.370Z,-81
2019-04-23T02:15:57.285Z,-81
2019-04-23T02:18:37.333Z,-82
2019-04-23T02:21:12.024Z,-82
2019-04-23T02:23:50.784Z,-81
2019-04-23T02:29:26.200Z,-81
2019-04-23T02:31:52.935Z,-82
2019-04-23T02:36:47.420Z,-81
2019-04-23T02:39:13.119Z,-81
2019-04-23T02:52:10.875Z,-81
2019-04-23T02:57:28.978Z,-82
2019-04-23T03:21:27.046Z,-81
2019-04-23T03:24:20.818Z,-81
2019-04-23T03:27:08.154Z,-81
2019-04-23T03:29:33.029Z,-82
2019-04-23T03:33:06.960Z,-81
2019-04-23T03:47:24.086Z,-81
2019-04-23T03:50:04.571Z,-81
2019-04-23T03:52:39.204Z,-80
2019-04-23T03:55:06.246Z,-80
2019-04-23T04:00:25.482Z,-80
2019-04-23T04:05:24.545Z,-80
2019-04-23T04:08:04.894Z,-82
2019-04-23T04:10:24.350Z,-81
2019-04-23T04:13:00.146Z,-81
2019-04-23T04:18:28.513Z,-81
2019-04-23T04:25:49.920Z,-82
2019-04-23T04:33:46.991Z,-82
2019-04-23T04:38:39.946Z,-80
2019-04-23T04:43:50.738Z,-81
2019-04-23T04:49:05.638Z,-81
2019-04-23T04:56:38.401Z,-81
2019-04-23T04:59:09.275Z,-82
2019-04-23T05:01:36.987Z,-82
2019-04-23T05:06:56.605Z,-81
2019-04-23T05:09:40.778Z,-83
2019-04-23T05:12:09.161Z,-82
2019-04-23T05:14:33.360Z,-81
2019-04-23T05:17:00.234Z,-81
2019-04-23T05:27:16.161Z,-85
2019-04-23T05:29:46.553Z,-81
2019-04-23T05:32:19.336Z,-84
2019-04-23T05:34:55.772Z,-84
2019-04-23T05:37:31.023Z,-81
2019-04-23T05:40:02.628Z,-83
2019-04-23T05:42:31.954Z,-82
2019-04-23T05:45:08.263Z,-84
2019-04-23T05:47:44.475Z,-83
2019-04-23T05:50:21.605Z,-81
2019-04-23T05:52:52.735Z,-83
2019-04-23T05:55:21.810Z,-83
2019-04-23T05:57:59.270Z,-83
2019-04-23T06:00:33.547Z,-80
2019-04-23T06:03:04.500Z,-81
2019-04-23T06:05:38.743Z,-81
2019-04-23T06:08:12.092Z,-83
2019-04-23T06:10:54.180Z,-81
2019-04-23T06:13:20.139Z,-81
2019-04-23T06:15:53.934Z,-81
2019-04-23T06:21:04.465Z,-81
2019-04-23T06:23:38.486Z,-83
2019-04-23T06:26:19.844Z,-83
2019-04-23T06:28:46.952Z,-82
2019-04-23T06:31:18.205Z,-82
2019-04-23T06:33:48.094Z,-82
2019-04-23T06:36:30.732Z,-82
2019-04-23T06:41:31.269Z,-82
2019-04-23T06:46:50.196Z,-82
2019-04-23T06:49:26.455Z,-81
2019-04-23T06:52:00.697Z,-83
2019-04-23T06:54:36.479Z,-83
2019-04-23T06:59:35.290Z,-82
2019-04-23T07:02:11.825Z,-82
2019-04-23T07:04:50.274Z,-83
2019-04-23T07:07:38.102Z,-84
2019-04-23T07:09:43.949Z,-83
2019-04-23T07:12:25.562Z,-83
2019-04-23T07:15:01.083Z,-84
2019-04-23T07:17:26.553Z,-83
2019-04-23T07:20:04.233Z,-83
2019-04-23T07:22:37.510Z,-82
2019-04-23T07:25:14.052Z,-84
2019-04-23T07:27:42.817Z,-84
2019-04-23T07:30:20.955Z,-85
2019-04-23T07:35:21.249Z,-89
2019-04-23T07:38:12.806Z,-88
2019-04-23T07:40:40.987Z,-86
2019-04-23T07:43:21.443Z,-86
2019-04-23T07:46:10.400Z,-87
2019-04-23T07:48:34.091Z,-86
2019-04-23T07:51:17.794Z,-86
2019-04-23T07:53:53.587Z,-86
2019-04-23T07:56:33.850Z,-85
2019-04-23T07:59:10.576Z,-86
2019-04-23T08:01:34.847Z,-86
2019-04-23T08:04:12.043Z,-86
2019-04-23T08:06:37.577Z,-87
2019-04-23T08:09:17.525Z,-86
2019-04-23T08:11:54.501Z,-87
2019-04-23T08:14:13.602Z,-87
2019-04-23T08:16:56.159Z,-86
2019-04-23T08:19:34.977Z,-86
2019-04-23T08:22:15.538Z,-87
2019-04-23T08:27:35.151Z,-88
2019-04-23T08:30:09.815Z,-87
2019-04-23T08:32:47.697Z,-88
2019-04-23T08:35:27.044Z,-89
2019-04-23T08:40:29.707Z,-87
2019-04-23T08:43:27.922Z,-87
2019-04-23T08:46:14.040Z,-88
2019-04-23T08:48:50.012Z,-89
2019-04-23T08:51:28.266Z,-88
2019-04-23T08:54:21.839Z,-87
2019-04-23T08:56:32.175Z,-88
2019-04-23T08:58:54.905Z,-87
2019-04-23T09:01:32.992Z,-88
2019-04-23T09:04:11.111Z,-87
2019-04-23T09:06:47.603Z,-88
2019-04-23T09:09:24.273Z,-88
2019-04-23T09:14:15.684Z,-90
2019-04-23T09:16:58.213Z,-89
2019-04-23T09:19:32.098Z,-90
2019-04-23T09:22:09.345Z,-88
2019-04-23T09:24:43.107Z,-89
2019-04-23T09:27:23.298Z,-89
2019-04-23T09:29:58.097Z,-89
2019-04-23T09:35:20.751Z,-89
2019-04-23T09:38:09.750Z,-88
2019-04-23T09:44:09.448Z,-89
2019-04-23T09:46:50.578Z,-88
2019-04-23T09:49:20.504Z,-89
2019-04-23T09:51:59.381Z,-89
2019-04-23T09:54:32.207Z,-88
2019-04-23T09:56:52.049Z,-89
2019-04-23T10:01:57.740Z,-89
2019-04-23T10:04:23.533Z,-88
2019-04-23T10:07:01.989Z,-89
2019-04-23T10:09:20.807Z,-89
2019-04-23T10:11:56.334Z,-89
2019-04-23T10:14:30.524Z,-90
2019-04-23T10:17:06.275Z,-88
2019-04-23T10:19:40.475Z,-89
2019-04-23T10:22:15.273Z,-87
2019-04-23T10:24:55.107Z,-87
2019-04-23T10:27:32.932Z,-88
2019-04-23T10:30:09.978Z,-89
2019-04-23T10:32:45.286Z,-88
2019-04-23T10:35:34.294Z,-88
2019-04-23T10:38:04.125Z,-88
2019-04-23T10:40:41.610Z,-88
2019-04-23T10:43:12.913Z,-88
2019-04-23T10:46:35.141Z,-88
2019-04-23T10:52:20.220Z,-88
2019-04-23T10:54:45.327Z,-89
2019-04-23T10:57:26.405Z,-88
2019-04-23T10:59:58.595Z,-89
2019-04-23T11:02:48.888Z,-89
2019-04-23T11:05:29.209Z,-88
2019-04-23T11:07:44.052Z,-88
2019-04-23T11:13:14.185Z,-88
2019-04-23T11:18:16.313Z,-89
2019-04-23T11:20:48.036Z,-87
2019-04-23T11:23:27.560Z,-87
2019-04-23T11:25:59.107Z,-87
2019-04-23T11:28:32.785Z,-87
2019-04-23T11:33:57.431Z,-85
2019-04-23T11:36:53.926Z,-88
2019-04-23T11:38:15.112Z,-86
2019-04-23T11:39:30.920Z,-90
2019-04-23T11:42:16.888Z,-88
2019-04-23T11:44:43.518Z,-88
2019-04-23T11:47:32.591Z,-87
2019-04-23T11:50:01.504Z,-88
2019-04-23T11:52:44.264Z,-88
2019-04-23T11:55:29.292Z,-88
2019-04-23T11:57:54.618Z,-86
2019-04-23T12:01:03.116Z,-88
2019-04-23T12:30:04.735Z,-88
2019-04-23T12:44:30.794Z,-89
2019-04-23T12:47:09.057Z,-88
2019-04-23T12:52:28.484Z,-89
2019-04-23T12:55:06.808Z,-89
2019-04-23T12:57:40.694Z,-89
2019-04-23T13:00:22.540Z,-89
2019-04-23T13:10:44.022Z,-89
2019-04-23T13:19:36.862Z,-88
2019-04-23T13:24:53.933Z,-88
2019-04-23T13:28:01.997Z,-89
2019-04-23T13:33:37.958Z,-87
2019-04-23T13:36:32.352Z,-89
2019-04-23T13:39:01.943Z,-86
2019-04-23T13:41:42.084Z,-89
2019-04-23T13:44:13.420Z,-86
2019-04-23T13:46:49.762Z,-87
2019-04-23T13:49:27.796Z,-86
2019-04-23T13:52:02.437Z,-86
2019-04-23T13:54:50.210Z,-86
2019-04-23T13:57:34.750Z,-86
2019-04-23T14:02:23.455Z,-88
2019-04-23T14:05:19.236Z,-88
2019-04-23T14:07:48.443Z,-86
2019-04-23T14:10:40.056Z,-87
2019-04-23T14:13:08.437Z,-86
2019-04-23T14:21:08.624Z,-85
2019-04-23T14:24:00.268Z,-86
2019-04-23T14:28:51.195Z,-87
2019-04-23T14:31:28.517Z,-87
2019-04-23T14:34:09.081Z,-87
2019-04-23T14:36:52.321Z,-86
2019-04-23T14:39:28.774Z,-86
2019-04-23T14:42:06.949Z,-85
2019-04-23T14:44:41.081Z,-86
2019-04-23T14:47:25.997Z,-86
2019-04-23T14:50:24.706Z,-85
2019-04-23T14:52:54.891Z,-87
2019-04-23T14:58:06.379Z,-85
2019-04-23T15:00:33.806Z,-87
2019-04-23T15:03:20.320Z,-88
2019-04-23T15:06:06.685Z,-87
2019-04-23T15:08:32.114Z,-86
2019-04-23T15:11:13.456Z,-85
2019-04-23T15:16:44.919Z,-85
2019-04-23T15:19:22.065Z,-85
2019-04-23T15:22:05.243Z,-86
2019-04-23T15:24:32.790Z,-87
2019-04-23T15:29:42.110Z,-86
2019-04-23T15:32:46.809Z,-87
2019-04-23T15:40:25.258Z,-85
2019-04-23T15:43:10.524Z,-87
2019-04-23T15:45:53.872Z,-86
2019-04-23T15:48:44.206Z,-87
2019-04-23T15:51:35.225Z,-87
2019-04-23T15:56:55.054Z,-87
2019-04-23T16:00:22.424Z,-87
2019-04-23T16:02:37.856Z,-87
2019-04-23T16:05:41.277Z,-87
2019-04-23T16:09:05.485Z,-86
2019-04-23T16:17:41.300Z,-87
2019-04-23T16:20:37.922Z,-87
2019-04-23T16:23:15.225Z,-88
2019-04-23T16:26:24.264Z,-87
2019-04-23T16:31:39.829Z,-88
2019-04-23T16:37:39.816Z,-88
2019-04-23T16:43:22.391Z,-88
2019-04-23T16:46:28.565Z,-86
2019-04-23T16:51:39.494Z,-88
2019-04-23T16:57:21.460Z,-87
2019-04-23T17:00:09.156Z,-87
2019-04-23T17:02:28.482Z,-87
2019-04-23T17:05:14.325Z,-86
2019-04-23T17:07:53.353Z,-87
2019-04-23T17:10:37.839Z,-87
2019-04-23T17:13:24.152Z,-87
2019-04-23T17:16:32.367Z,-87
2019-04-23T17:18:54.995Z,-86
2019-04-23T17:21:53.323Z,-87
2019-04-23T17:29:41.346Z,-87
2019-04-23T17:32:21.070Z,-87
2019-04-23T17:35:20.748Z,-87
2019-04-23T17:38:23.336Z,-87
2019-04-23T17:44:27.552Z,-86
2019-04-23T17:46:56.552Z,-86
2019-04-23T17:50:54.662Z,-86
2019-04-23T17:53:19.949Z,-86
2019-04-23T18:24:16.841Z,-87
2019-04-23T18:27:48.305Z,-87
2019-04-23T18:31:05.899Z,-84
2019-04-23T18:34:42.334Z,-84
2019-04-23T18:37:11.588Z,-86
2019-04-23T18:39:47.531Z,-87
2019-04-23T18:42:46.351Z,-87
2019-04-23T18:44:48.482Z,-87
2019-04-23T18:47:35.163Z,-86
2019-04-23T18:49:59.277Z,-86
2019-04-23T18:52:37.803Z,-87
2019-04-23T18:55:08.064Z,-87
2019-04-23T18:57:42.346Z,-84
2019-04-23T19:03:11.405Z,-86
2019-04-23T19:06:07.387Z,-86
2019-04-23T19:11:51.245Z,-86
2019-04-23T19:14:30.852Z,-86
2019-04-23T19:17:08.919Z,-86
2019-04-23T19:19:29.035Z,-85
2019-04-23T19:22:14.562Z,-85
2019-04-23T19:24:31.682Z,-86
2019-04-23T19:29:46.219Z,-86
2019-04-23T19:32:33.591Z,-85
2019-04-23T19:34:42.597Z,-86
2019-04-23T19:37:30.327Z,-86
2019-04-23T19:39:55.109Z,-86
2019-04-23T19:42:36.737Z,-85
2019-04-23T19:45:12.690Z,-85
2019-04-23T19:47:56.840Z,-85
2019-04-23T19:50:23.939Z,-86
2019-04-23T19:53:07.375Z,-86
2019-04-23T19:55:29.921Z,-86
2019-04-23T19:58:27.415Z,-86
2019-04-23T20:03:43.777Z,-85
2019-04-23T20:06:27.423Z,-86
2019-04-23T20:09:17.597Z,-86
2019-04-23T20:11:54.737Z,-86
2019-04-23T20:14:43.938Z,-86
2019-04-23T20:19:56.734Z,-86
2019-04-23T21:10:01.049Z,-84
2019-04-23T21:12:48.213Z,-82
2019-04-23T21:15:04.886Z,-83
2019-04-23T21:17:35.609Z,-83
2019-04-23T21:20:20.628Z,-82
2019-04-23T21:22:38.274Z,-83
2019-04-23T21:25:11.741Z,-83
2019-04-23T21:30:53.659Z,-83
2019-04-23T21:33:11.635Z,-83
2019-04-23T21:36:13.824Z,-83
2019-04-23T21:39:10.059Z,-83
2019-04-23T21:41:44.857Z,-83
2019-04-23T21:54:14.921Z,-83
2019-04-23T21:59:29.591Z,-82
2019-04-23T22:01:58.885Z,-82
2019-04-23T22:04:40.084Z,-82
2019-04-23T22:07:07.307Z,-83
2019-04-23T22:09:56.049Z,-83
2019-04-23T22:12:13.527Z,-82
2019-04-23T22:17:25.993Z,-81
2019-04-23T22:20:03.973Z,-82
2019-04-23T22:22:41.913Z,-83
2019-04-23T22:25:04.510Z,-82
2019-04-23T22:27:41.272Z,-82
2019-04-23T22:30:11.439Z,-82
2019-04-23T22:35:20.321Z,-83
2019-04-23T22:37:58.667Z,-82
2019-04-23T22:40:28.364Z,-82
2019-04-23T22:45:37.640Z,-82
2019-04-23T22:48:11.861Z,-82
2019-04-23T22:50:47.155Z,-82
2019-04-23T22:53:26.629Z,-82
2019-04-23T22:55:57.404Z,-85
2019-04-23T22:58:27.576Z,-84
2019-04-23T23:01:19.695Z,-84
2019-04-23T23:03:47.545Z,-84
2019-04-23T23:06:23.093Z,-84
2019-04-23T23:09:07.876Z,-83
2019-04-23T23:11:24.668Z,-83
2019-04-23T23:14:10.271Z,-84
2019-04-23T23:16:28.421Z,-83
2019-04-23T23:19:17.345Z,-83
2019-04-23T23:21:51.588Z,-83
2019-04-23T23:24:16.926Z,-83
2019-04-23T23:26:54.228Z,-83
2019-04-23T23:29:19.785Z,-84
2019-04-23T23:32:00.724Z,-83
2019-04-23T23:34:38.337Z,-84
2019-04-23T23:37:07.519Z,-83
2019-04-23T23:45:14.003Z,-82
2019-04-23T23:50:04.263Z,-84
2019-04-23T23:52:42.854Z,-83
2019-04-23T23:55:08.292Z,-82
2019-04-23T23:57:56.853Z,-81
